createdAt,value
2022-09-26T00:02:39.721Z,87.74
2022-09-26T00:05:41.410Z,87.82
2022-09-26T00:08:45.077Z,87.76
2022-09-26T00:11:48.970Z,87.85
2022-09-26T00:14:50.731Z,87.70
2022-09-26T00:17:52.395Z,87.90
2022-09-26T00:20:54.210Z,88.07
2022-09-26T00:23:57.521Z,88.10
2022-09-26T00:26:59.175Z,88.04
2022-09-26T00:30:00.687Z,87.91
2022-09-26T00:33:02.666Z,87.91
2022-09-26T00:36:04.831Z,87.88
2022-09-26T00:39:08.894Z,87.99
2022-09-26T00:42:13.216Z,87.83
2022-09-26T00:45:18.107Z,87.87
2022-09-26T00:48:20.293Z,87.65
2022-09-26T00:51:25.118Z,87.67
2022-09-26T00:54:31.099Z,87.75
2022-09-26T00:57:35.212Z,87.80
2022-09-26T01:00:42.027Z,87.89
2022-09-26T01:03:44.683Z,87.92
2022-09-26T01:06:46.635Z,88.09
2022-09-26T01:09:50.229Z,87.92
2022-09-26T01:12:52.389Z,87.98
2022-09-26T01:15:54.003Z,88.09
2022-09-26T01:18:55.762Z,88.15
2022-09-26T01:22:15.310Z,88.42
2022-09-26T01:25:22.308Z,88.62
2022-09-26T01:28:30.949Z,88.72
2022-09-26T01:31:40.064Z,88.78
2022-09-26T01:34:47.419Z,88.63
2022-09-26T01:37:59.550Z,88.79
2022-09-26T01:41:05.890Z,88.79
2022-09-26T01:44:15.448Z,88.58
2022-09-26T01:47:23.173Z,88.66
2022-09-26T01:50:27.845Z,88.67
2022-09-26T01:53:31.899Z,88.71
2022-09-26T01:56:36.957Z,88.81
2022-09-26T01:59:41.069Z,88.85
2022-09-26T02:02:46.628Z,88.88
2022-09-26T02:05:51.461Z,89.09
2022-09-26T02:08:57.070Z,89.25
2022-09-26T02:12:01.052Z,89.32
2022-09-26T02:15:04.855Z,89.50
2022-09-26T02:18:13.909Z,89.65
2022-09-26T02:21:17.794Z,89.96
2022-09-26T02:24:19.779Z,90.01
2022-09-26T02:27:21.773Z,90.31
2022-09-26T02:30:25.458Z,90.27
2022-09-26T02:33:28.492Z,90.58
2022-09-26T02:36:34.591Z,90.36
2022-09-26T02:39:36.772Z,90.48
2022-09-26T02:42:43.874Z,90.54
2022-09-26T02:45:47.664Z,90.78
2022-09-26T02:48:59.777Z,90.74
2022-09-26T02:52:10.427Z,90.94
2022-09-26T02:55:20.193Z,90.94
2022-09-26T02:58:35.103Z,90.97
2022-09-26T03:01:40.466Z,90.94
2022-09-26T03:04:47.498Z,90.98
2022-09-26T03:07:51.904Z,90.92
2022-09-26T03:10:56.082Z,90.90
2022-09-26T03:13:58.037Z,90.66
2022-09-26T03:17:01.337Z,90.50
2022-09-26T03:20:06.810Z,90.32
2022-09-26T03:23:08.611Z,90.14
2022-09-26T03:26:12.262Z,90.18
2022-09-26T03:29:17.235Z,90.05
2022-09-26T03:32:19.023Z,89.82
2022-09-26T03:35:23.049Z,89.82
2022-09-26T03:38:24.890Z,89.69
2022-09-26T03:41:26.528Z,89.64
2022-09-26T03:44:28.297Z,89.63
2022-09-26T03:47:30.696Z,89.48
2022-09-26T03:50:34.916Z,89.40
2022-09-26T03:53:37.755Z,89.65
2022-09-26T03:56:39.426Z,89.84
2022-09-26T03:59:41.050Z,90.06
2022-09-26T04:02:43.098Z,89.84
2022-09-26T04:05:46.096Z,89.77
2022-09-26T04:08:48.889Z,89.85
2022-09-26T04:11:50.882Z,89.70
2022-09-26T04:14:53.120Z,89.84
2022-09-26T04:17:55.787Z,89.82
2022-09-26T04:20:59.812Z,90.08
2022-09-26T04:24:01.787Z,90.09
2022-09-26T04:27:03.405Z,90.36
2022-09-26T04:30:05.504Z,90.34
2022-09-26T04:33:07.289Z,90.26
2022-09-26T04:36:11.481Z,90.26
2022-09-26T04:39:13.158Z,90.05
2022-09-26T04:42:17.377Z,90.21
2022-09-26T04:45:19.282Z,90.27
2022-09-26T04:48:22.001Z,90.16
2022-09-26T04:51:26.033Z,90.24
2022-09-26T04:54:27.782Z,90.25
2022-09-26T04:57:29.319Z,90.29
2022-09-26T05:00:31.480Z,90.43
2022-09-26T05:03:36.460Z,90.31
2022-09-26T05:06:39.832Z,90.59
2022-09-26T05:09:43.525Z,90.63
2022-09-26T05:12:45.768Z,90.70
2022-09-26T05:15:48.012Z,90.73
2022-09-26T05:18:50.337Z,91.04
2022-09-26T05:21:53.579Z,90.67
2022-09-26T05:25:13.917Z,90.66
2022-09-26T05:28:15.549Z,90.57
2022-09-26T05:31:18.225Z,90.52
2022-09-26T05:34:24.450Z,90.60
2022-09-26T05:37:27.579Z,90.58
2022-09-26T05:40:47.981Z,90.43
2022-09-26T05:43:49.757Z,90.49
2022-09-26T05:46:52.126Z,90.44
2022-09-26T05:49:55.098Z,90.14
2022-09-26T05:52:59.773Z,90.52
2022-09-26T05:56:01.715Z,90.27
2022-09-26T05:59:03.862Z,90.09
2022-09-26T06:02:06.114Z,90.20
2022-09-26T06:05:07.906Z,90.17
2022-09-26T06:08:11.427Z,90.19
2022-09-26T06:11:14.145Z,90.13
2022-09-26T06:14:15.932Z,89.88
2022-09-26T06:17:18.927Z,90.21
2022-09-26T06:20:22.580Z,90.12
2022-09-26T06:23:25.736Z,90.17
2022-09-26T06:26:28.998Z,90.26
2022-09-26T06:29:31.078Z,90.17
2022-09-26T06:32:32.669Z,90.39
2022-09-26T06:35:34.760Z,90.50
2022-09-26T06:38:39.477Z,90.53
2022-09-26T06:41:41.079Z,90.58
2022-09-26T06:44:42.925Z,90.83
2022-09-26T06:47:44.842Z,90.80
2022-09-26T06:50:51.087Z,90.91
2022-09-26T06:53:54.427Z,90.80
2022-09-26T06:56:56.226Z,90.32
2022-09-26T06:59:57.822Z,90.76
2022-09-26T07:02:59.626Z,90.85
2022-09-26T07:06:01.476Z,90.51
2022-09-26T07:09:12.301Z,90.28
2022-09-26T07:12:16.728Z,90.27
2022-09-26T07:15:20.302Z,90.52
2022-09-26T07:18:21.948Z,90.39
2022-09-26T07:21:23.866Z,90.32
2022-09-26T07:24:28.105Z,90.38
2022-09-26T07:27:29.913Z,90.53
2022-09-26T07:30:31.745Z,90.76
2022-09-26T07:33:33.876Z,90.59
2022-09-26T07:36:35.763Z,90.73
2022-09-26T07:39:38.653Z,89.71
2022-09-26T07:42:41.922Z,88.73
2022-09-26T07:46:02.006Z,88.99
2022-09-26T07:49:22.365Z,88.21
2022-09-26T07:52:24.078Z,88.08
2022-09-26T07:55:27.594Z,88.13
2022-09-26T07:58:29.156Z,88.34
2022-09-26T08:01:31.113Z,88.36
2022-09-26T08:04:32.660Z,88.27
2022-09-26T08:07:38.490Z,88.29
2022-09-26T08:10:42.698Z,88.15
2022-09-26T08:13:44.780Z,88.22
2022-09-26T08:16:46.541Z,88.66
2022-09-26T08:19:48.230Z,88.14
2022-09-26T08:22:49.753Z,87.81
2022-09-26T08:25:52.832Z,88.17
2022-09-26T08:28:54.759Z,88.26
2022-09-26T08:31:56.790Z,87.73
2022-09-26T08:35:00.317Z,87.80
2022-09-26T08:38:03.007Z,87.48
2022-09-26T08:41:13.897Z,87.17
2022-09-26T08:44:26.736Z,87.13
2022-09-26T08:47:36.917Z,86.99
2022-09-26T08:50:42.473Z,86.07
2022-09-26T08:53:48.557Z,85.87
2022-09-26T08:56:52.922Z,84.61
2022-09-26T08:59:54.833Z,83.70
2022-09-26T09:03:05.998Z,82.87
2022-09-26T09:06:11.625Z,81.13
2022-09-26T09:09:15.953Z,81.61
2022-09-26T09:12:24.810Z,80.77
2022-09-26T09:15:34.448Z,80.44
2022-09-26T09:18:44.831Z,79.57
2022-09-26T09:21:53.452Z,78.80
2022-09-26T09:24:58.436Z,79.42
2022-09-26T09:28:10.664Z,77.72
2022-09-26T09:31:14.825Z,78.03
2022-09-26T09:34:24.363Z,78.13
2022-09-26T09:37:28.429Z,78.33
2022-09-26T09:40:34.127Z,78.11
2022-09-26T09:43:41.045Z,76.87
2022-09-26T09:46:43.744Z,77.03
2022-09-26T09:49:47.679Z,77.15
2022-09-26T09:52:53.038Z,76.06
2022-09-26T09:56:03.035Z,75.52
2022-09-26T09:59:17.569Z,75.83
2022-09-26T10:02:26.074Z,75.59
2022-09-26T10:05:36.767Z,75.31
2022-09-26T10:08:42.005Z,75.06
2022-09-26T10:11:43.725Z,75.24
2022-09-26T10:14:53.171Z,75.39
2022-09-26T10:18:23.378Z,75.85
2022-09-26T10:21:28.257Z,74.64
2022-09-26T10:24:34.953Z,74.65
2022-09-26T10:27:38.245Z,74.81
2022-09-26T10:30:50.352Z,74.70
2022-09-26T10:34:00.292Z,74.64
2022-09-26T10:37:24.074Z,74.86
2022-09-26T10:40:45.451Z,75.16
2022-09-26T10:43:52.232Z,75.32
2022-09-26T10:46:58.053Z,76.39
2022-09-26T10:50:02.323Z,76.17
2022-09-26T10:53:10.124Z,76.98
2022-09-26T10:56:13.594Z,76.97
2022-09-26T10:59:16.794Z,75.93
2022-09-26T11:02:22.444Z,75.81
2022-09-26T11:05:43.246Z,76.19
2022-09-26T11:08:51.038Z,77.32
2022-09-26T11:11:52.814Z,78.07
2022-09-26T11:14:57.031Z,78.58
2022-09-26T11:18:00.458Z,77.97
2022-09-26T11:21:18.401Z,79.16
2022-09-26T11:24:37.444Z,79.34
2022-09-26T11:27:46.073Z,79.82
2022-09-26T11:30:50.244Z,80.78
2022-09-26T11:33:54.313Z,80.04
2022-09-26T11:37:11.859Z,79.64
2022-09-26T11:40:29.011Z,79.65
2022-09-26T11:43:38.438Z,80.15
2022-09-26T11:46:47.519Z,80.22
2022-09-26T11:49:59.369Z,80.40
2022-09-26T11:53:09.579Z,79.57
2022-09-26T11:56:20.182Z,80.68
2022-09-26T11:59:40.677Z,80.29
2022-09-26T12:02:56.403Z,80.05
2022-09-26T12:06:03.139Z,79.34
2022-09-26T12:09:19.659Z,79.30
2022-09-26T12:12:27.749Z,79.74
2022-09-26T12:15:34.393Z,80.33
2022-09-26T12:18:40.074Z,80.24
2022-09-26T12:22:09.583Z,79.44
2022-09-26T12:25:22.940Z,78.97
2022-09-26T12:28:42.240Z,78.73
2022-09-26T12:31:51.555Z,78.41
2022-09-26T12:35:03.634Z,78.85
2022-09-26T12:38:20.761Z,78.94
2022-09-26T12:41:34.517Z,79.02
2022-09-26T12:44:53.206Z,78.38
2022-09-26T12:48:09.977Z,78.51
2022-09-26T12:51:20.730Z,78.93
2022-09-26T12:54:33.528Z,79.27
2022-09-26T12:57:38.673Z,79.83
2022-09-26T13:00:56.805Z,80.19
2022-09-26T13:04:11.885Z,80.77
2022-09-26T13:07:20.505Z,80.86
2022-09-26T13:10:32.434Z,81.75
2022-09-26T13:13:48.888Z,81.75
2022-09-26T13:17:00.760Z,81.88
2022-09-26T13:20:05.376Z,82.25
2022-09-26T13:23:11.061Z,82.36
2022-09-26T13:26:18.033Z,82.38
2022-09-26T13:29:23.173Z,82.36
2022-09-26T13:32:27.603Z,82.84
2022-09-26T13:35:31.806Z,82.93
2022-09-26T13:38:39.226Z,83.29
2022-09-26T13:41:48.735Z,83.44
2022-09-26T13:44:55.684Z,84.08
2022-09-26T13:48:02.761Z,83.97
2022-09-26T13:51:13.134Z,84.23
2022-09-26T13:54:19.257Z,84.94
2022-09-26T13:57:32.062Z,85.69
2022-09-26T14:00:53.334Z,85.99
2022-09-26T14:04:17.867Z,86.11
2022-09-26T14:07:41.510Z,86.27
2022-09-26T14:10:52.183Z,86.10
2022-09-26T14:14:28.053Z,86.04
2022-09-26T14:17:54.128Z,86.38
2022-09-26T14:21:14.288Z,85.55
2022-09-26T14:24:26.176Z,83.25
2022-09-26T14:27:41.734Z,84.08
2022-09-26T14:31:08.335Z,83.08
2022-09-26T14:34:31.258Z,82.91
2022-09-26T14:37:40.620Z,82.32
2022-09-26T14:40:52.210Z,82.43
2022-09-26T14:43:58.999Z,82.78
2022-09-26T14:47:05.332Z,81.78
2022-09-26T14:50:14.269Z,82.07
2022-09-26T14:53:21.108Z,81.92
2022-09-26T14:56:33.134Z,82.10
2022-09-26T14:59:44.947Z,82.95
2022-09-26T15:02:50.501Z,82.48
2022-09-26T15:05:52.451Z,82.21
2022-09-26T15:08:57.047Z,81.61
2022-09-26T15:11:59.865Z,81.78
2022-09-26T15:15:08.424Z,81.92
2022-09-26T15:18:15.219Z,82.38
2022-09-26T15:21:23.227Z,82.47
2022-09-26T15:24:28.312Z,82.55
2022-09-26T15:27:31.887Z,82.66
2022-09-26T15:30:35.061Z,83.10
2022-09-26T15:33:37.456Z,83.11
2022-09-26T15:36:44.144Z,83.51
2022-09-26T15:39:47.440Z,83.37
2022-09-26T15:42:59.127Z,83.96
2022-09-26T15:46:05.991Z,84.23
2022-09-26T15:49:14.164Z,84.24
2022-09-26T15:52:17.776Z,84.42
2022-09-26T15:55:24.032Z,84.34
2022-09-26T15:58:30.946Z,84.17
2022-09-26T16:01:39.096Z,84.89
2022-09-26T16:04:41.222Z,85.86
2022-09-26T16:07:48.014Z,86.55
2022-09-26T16:10:56.446Z,86.96
2022-09-26T16:14:00.698Z,86.76
2022-09-26T16:17:11.181Z,86.67
2022-09-26T16:20:24.158Z,86.57
2022-09-26T16:23:27.266Z,86.67
2022-09-26T16:26:41.320Z,86.80
2022-09-26T16:29:43.020Z,86.42
2022-09-26T16:32:45.192Z,86.51
2022-09-26T16:35:47.972Z,86.84
2022-09-26T16:38:52.053Z,86.60
2022-09-26T16:42:01.803Z,86.20
2022-09-26T16:45:05.907Z,86.41
2022-09-26T16:48:32.890Z,86.24
2022-09-26T16:51:39.834Z,85.83
2022-09-26T16:54:41.880Z,85.93
2022-09-26T16:57:51.866Z,85.67
2022-09-26T17:01:12.710Z,85.70
2022-09-26T17:04:16.243Z,86.41
2022-09-26T17:07:18.371Z,86.46
2022-09-26T17:10:22.427Z,86.67
2022-09-26T17:13:28.807Z,86.66
2022-09-26T17:16:31.529Z,86.46
2022-09-26T17:19:35.670Z,86.58
2022-09-26T17:22:37.516Z,86.49
2022-09-26T17:25:39.584Z,86.62
2022-09-26T17:28:43.192Z,86.83
2022-09-26T17:31:45.264Z,86.34
2022-09-26T17:34:47.857Z,86.67
2022-09-26T17:37:50.313Z,87.03
2022-09-26T17:40:52.506Z,86.67
2022-09-26T17:44:00.471Z,87.03
2022-09-26T17:47:03.326Z,86.75
2022-09-26T17:50:07.055Z,86.83
2022-09-26T17:53:15.183Z,88.28
2022-09-26T17:56:18.403Z,88.75
2022-09-26T17:59:23.381Z,89.54
2022-09-26T18:02:30.157Z,90.22
2022-09-26T18:05:36.589Z,90.58
2022-09-26T18:08:39.763Z,91.08
2022-09-26T18:11:43.660Z,91.53
2022-09-26T18:14:47.691Z,91.74
2022-09-26T18:17:51.110Z,92.61
2022-09-26T18:20:52.958Z,92.89
2022-09-26T18:23:57.415Z,93.23
2022-09-26T18:27:05.981Z,93.52
2022-09-26T18:30:11.956Z,94.13
2022-09-26T18:33:14.279Z,94.28
2022-09-26T18:36:16.196Z,94.80
2022-09-26T18:39:18.029Z,94.99
2022-09-26T18:42:23.599Z,95.38
2022-09-26T18:45:29.051Z,95.37
2022-09-26T18:48:33.038Z,95.74
2022-09-26T18:51:35.179Z,95.70
2022-09-26T18:54:37.036Z,95.94
2022-09-26T18:57:58.440Z,96.11
2022-09-26T19:01:05.893Z,96.61
2022-09-26T19:04:12.098Z,96.99
2022-09-26T19:07:21.000Z,97.10
2022-09-26T19:10:23.601Z,97.07
2022-09-26T19:13:27.707Z,97.57
2022-09-26T19:16:31.271Z,97.80
2022-09-26T19:19:33.408Z,98.07
2022-09-26T19:22:38.033Z,98.08
2022-09-26T19:25:39.796Z,98.47
2022-09-26T19:28:44.942Z,98.68
2022-09-26T19:31:48.170Z,98.58
2022-09-26T19:34:53.168Z,99.03
2022-09-26T19:37:55.247Z,98.78
2022-09-26T19:41:00.863Z,98.99
2022-09-26T19:44:04.807Z,99.12
2022-09-26T19:47:10.794Z,99.12
2022-09-26T19:50:15.387Z,99.19
2022-09-26T19:53:18.620Z,99.49
2022-09-26T19:56:20.451Z,99.69
2022-09-26T19:59:27.373Z,100.00
2022-09-26T20:02:31.962Z,99.94
2022-09-26T20:05:33.788Z,100.00
2022-09-26T20:08:36.030Z,99.98
2022-09-26T20:11:38.271Z,100.00
2022-09-26T20:14:40.128Z,100.00
2022-09-26T20:17:44.905Z,100.00
2022-09-26T20:20:47.790Z,100.00
2022-09-26T20:23:49.595Z,100.00
2022-09-26T20:26:52.569Z,100.00
2022-09-26T20:30:13.479Z,100.00
2022-09-26T20:33:17.383Z,100.00
2022-09-26T20:36:24.845Z,100.00
2022-09-26T20:39:28.345Z,100.00
2022-09-26T20:42:35.496Z,100.00
2022-09-26T20:45:39.991Z,100.00
2022-09-26T20:48:46.532Z,100.00
2022-09-26T20:51:48.725Z,100.00
2022-09-26T20:54:55.298Z,100.00
2022-09-26T20:57:57.501Z,100.00
2022-09-26T21:00:59.510Z,100.00
2022-09-26T21:04:13.029Z,100.00
2022-09-26T21:07:15.592Z,100.00
2022-09-26T21:10:24.067Z,100.00
2022-09-26T21:13:25.970Z,100.00
2022-09-26T21:16:27.845Z,100.00
2022-09-26T21:19:32.793Z,100.00
2022-09-26T21:22:37.857Z,100.00
2022-09-26T21:25:39.750Z,100.00
2022-09-26T21:28:41.698Z,100.00
2022-09-26T21:31:46.758Z,100.00
2022-09-26T21:34:53.785Z,100.00
2022-09-26T21:37:56.713Z,100.00
2022-09-26T21:40:59.825Z,100.00
2022-09-26T21:44:06.995Z,100.00
2022-09-26T21:47:08.892Z,100.00
2022-09-26T21:50:13.164Z,100.00
2022-09-26T21:53:17.105Z,100.00
2022-09-26T21:56:22.255Z,100.00
2022-09-26T21:59:27.059Z,100.00
2022-09-26T22:02:29.104Z,100.00
2022-09-26T22:05:32.615Z,100.00
2022-09-26T22:08:34.446Z,100.00
2022-09-26T22:11:36.823Z,100.00
2022-09-26T22:14:38.429Z,100.00
2022-09-26T22:17:40.102Z,100.00
2022-09-26T22:20:43.856Z,100.00
2022-09-26T22:23:48.551Z,100.00
2022-09-26T22:26:50.787Z,100.00
2022-09-26T22:29:52.577Z,100.00
2022-09-26T22:32:54.576Z,100.00
2022-09-26T22:35:57.998Z,100.00
2022-09-26T22:39:08.673Z,100.00
2022-09-26T22:42:12.223Z,100.00
2022-09-26T22:45:14.696Z,100.00
2022-09-26T22:48:17.114Z,100.00
2022-09-26T22:51:23.059Z,100.00
2022-09-26T22:54:25.203Z,100.00
2022-09-26T22:57:27.163Z,100.00
2022-09-26T23:00:29.146Z,100.00
2022-09-26T23:03:31.134Z,100.00
2022-09-26T23:06:35.949Z,100.00
2022-09-26T23:09:38.990Z,100.00
2022-09-26T23:12:42.052Z,100.00
2022-09-26T23:15:44.849Z,100.00
2022-09-26T23:18:47.363Z,100.00
2022-09-26T23:21:50.667Z,100.00
2022-09-26T23:24:52.759Z,100.00
2022-09-26T23:27:54.650Z,100.00
2022-09-26T23:31:03.363Z,100.00
2022-09-26T23:34:05.380Z,100.00
2022-09-26T23:37:08.718Z,100.00
2022-09-26T23:40:10.794Z,100.00
2022-09-26T23:43:12.568Z,100.00
2022-09-26T23:46:14.973Z,100.00
2022-09-26T23:49:16.845Z,100.00
2022-09-26T23:52:22.474Z,100.00
2022-09-26T23:55:24.261Z,100.00
2022-09-26T23:58:29.605Z,100.00
